createdAt,value
2022-11-04T00:01:47.851Z,0.40
2022-11-04T00:03:39.478Z,0.30
2022-11-04T00:05:31.080Z,0.40
2022-11-04T00:07:45.087Z,0.40
2022-11-04T00:09:36.398Z,0.40
2022-11-04T00:11:47.056Z,0.38
2022-11-04T00:13:38.416Z,0.40
2022-11-04T00:15:47.762Z,0.40
2022-11-04T00:17:39.324Z,0.40
2022-11-04T00:19:50.621Z,0.40
2022-11-04T00:22:10.547Z,0.40
2022-11-04T00:24:20.057Z,0.40
2022-11-04T00:26:29.710Z,0.40
2022-11-04T00:28:39.797Z,0.40
2022-11-04T00:30:31.509Z,0.40
2022-11-04T00:32:41.334Z,0.30
2022-11-04T00:34:32.822Z,0.40
2022-11-04T00:36:25.057Z,0.32
2022-11-04T00:38:16.944Z,0.40
2022-11-04T00:40:10.715Z,0.32
2022-11-04T00:42:01.981Z,0.40
2022-11-04T00:44:02.121Z,0.30
2022-11-04T00:45:53.251Z,0.30
2022-11-04T00:47:44.727Z,0.40
2022-11-04T00:49:35.847Z,0.40
2022-11-04T00:51:27.569Z,0.30
2022-11-04T00:53:19.273Z,0.40
2022-11-04T00:55:10.550Z,0.40
2022-11-04T00:57:03.056Z,0.40
2022-11-04T00:58:54.307Z,0.40
2022-11-04T01:00:45.945Z,0.40
2022-11-04T01:02:37.489Z,0.30
2022-11-04T01:04:29.299Z,0.40
2022-11-04T01:06:22.455Z,0.40
2022-11-04T01:08:15.161Z,0.40
2022-11-04T01:10:06.730Z,0.40
2022-11-04T01:11:58.205Z,0.40
2022-11-04T01:13:52.858Z,0.40
2022-11-04T01:15:44.211Z,0.40
2022-11-04T01:17:35.464Z,0.38
2022-11-04T01:19:27.037Z,0.40
2022-11-04T01:21:18.676Z,0.40
2022-11-04T01:23:09.703Z,0.40
2022-11-04T01:25:01.105Z,0.40
2022-11-04T01:26:52.766Z,0.32
2022-11-04T01:28:44.647Z,0.40
2022-11-04T01:30:39.139Z,0.40
2022-11-04T01:32:30.389Z,0.30
2022-11-04T01:34:21.770Z,0.30
2022-11-04T01:36:13.060Z,0.40
2022-11-04T01:38:04.741Z,0.32
2022-11-04T01:39:56.347Z,0.30
2022-11-04T01:41:47.907Z,0.40
2022-11-04T01:43:59.943Z,0.40
2022-11-04T01:46:02.803Z,0.40
2022-11-04T01:48:02.743Z,0.30
2022-11-04T01:50:04.951Z,0.40
2022-11-04T01:52:11.139Z,0.38
2022-11-04T01:54:05.123Z,0.40
2022-11-04T01:55:59.088Z,0.30
2022-11-04T01:57:53.194Z,0.30
2022-11-04T01:59:44.782Z,0.38
2022-11-04T02:01:36.769Z,0.40
2022-11-04T02:03:33.180Z,0.40
2022-11-04T02:05:24.420Z,0.40
2022-11-04T02:07:15.992Z,0.30
2022-11-04T02:09:07.257Z,0.30
2022-11-04T02:11:04.382Z,0.40
2022-11-04T02:12:58.497Z,0.40
2022-11-04T02:14:51.429Z,0.40
2022-11-04T02:16:48.088Z,0.40
2022-11-04T02:18:52.618Z,0.38
2022-11-04T02:21:11.285Z,0.40
2022-11-04T02:23:59.255Z,0.40
2022-11-04T02:26:11.299Z,0.40
2022-11-04T02:28:10.819Z,0.40
2022-11-04T02:30:08.228Z,0.32
2022-11-04T02:32:11.161Z,0.40
2022-11-04T02:34:24.989Z,0.40
2022-11-04T02:36:55.466Z,0.40
2022-11-04T02:39:00.802Z,0.40
2022-11-04T02:41:03.150Z,0.40
2022-11-04T02:43:01.645Z,0.40
2022-11-04T02:45:10.396Z,0.32
2022-11-04T02:47:09.495Z,0.40
2022-11-04T02:49:15.906Z,0.40
2022-11-04T02:51:18.484Z,0.30
2022-11-04T02:53:42.637Z,0.38
2022-11-04T02:55:47.947Z,0.40
2022-11-04T02:57:42.431Z,0.40
2022-11-04T02:59:39.820Z,0.40
2022-11-04T03:01:36.680Z,0.40
2022-11-04T03:03:34.670Z,0.35
2022-11-04T03:05:34.316Z,0.35
2022-11-04T03:07:31.765Z,0.40
2022-11-04T03:09:24.183Z,0.40
2022-11-04T03:11:22.470Z,0.40
2022-11-04T03:13:38.066Z,0.38
2022-11-04T03:15:34.093Z,0.35
2022-11-04T03:17:36.966Z,0.38
2022-11-04T03:19:44.957Z,0.40
2022-11-04T03:21:43.312Z,0.40
2022-11-04T03:23:35.363Z,0.30
2022-11-04T03:25:33.767Z,0.40
2022-11-04T03:27:43.972Z,0.40
2022-11-04T03:29:58.554Z,0.30
2022-11-04T03:33:49.963Z,0.40
2022-11-04T03:35:41.605Z,0.32
2022-11-04T03:37:33.759Z,0.40
2022-11-04T03:39:25.823Z,0.40
2022-11-04T03:41:31.654Z,0.40
2022-11-04T03:43:27.988Z,0.38
2022-11-04T03:45:19.787Z,0.40
2022-11-04T03:47:10.954Z,0.30
2022-11-04T03:49:03.387Z,0.35
2022-11-04T03:50:54.906Z,0.35
2022-11-04T03:52:46.757Z,0.40
2022-11-04T03:54:39.073Z,0.40
2022-11-04T03:56:42.432Z,0.40
2022-11-04T03:58:46.186Z,0.40
2022-11-04T04:00:49.963Z,0.30
2022-11-04T04:02:47.898Z,0.30
2022-11-04T04:04:46.551Z,0.40
2022-11-04T04:06:40.028Z,0.40
2022-11-04T04:08:45.975Z,0.40
2022-11-04T04:10:44.866Z,0.30
2022-11-04T04:12:41.140Z,0.30
2022-11-04T04:14:42.448Z,0.40
2022-11-04T04:16:47.851Z,0.40
2022-11-04T04:19:00.961Z,0.40
2022-11-04T04:20:55.260Z,0.30
2022-11-04T04:22:53.415Z,0.40
2022-11-04T04:25:07.229Z,0.40
2022-11-04T04:27:18.486Z,0.30
2022-11-04T04:29:11.460Z,0.40
2022-11-04T04:31:03.828Z,0.40
2022-11-04T04:33:05.229Z,0.40
2022-11-04T04:35:16.366Z,0.40
2022-11-04T04:37:22.416Z,0.40
2022-11-04T04:39:36.796Z,0.30
2022-11-04T04:41:50.158Z,0.40
2022-11-04T04:44:02.266Z,0.40
2022-11-04T04:45:56.342Z,0.40
2022-11-04T04:47:47.756Z,0.40
2022-11-04T04:49:50.712Z,0.35
2022-11-04T04:51:48.169Z,0.30
2022-11-04T04:53:39.765Z,0.32
2022-11-04T04:55:38.952Z,0.30
2022-11-04T04:57:32.782Z,0.30
2022-11-04T04:59:24.389Z,0.30
2022-11-04T05:01:16.178Z,0.30
2022-11-04T05:03:07.970Z,0.30
2022-11-04T05:04:59.723Z,0.30
2022-11-04T05:06:51.234Z,0.35
2022-11-04T05:08:42.666Z,0.40
2022-11-04T05:10:34.463Z,0.30
2022-11-04T05:12:25.753Z,0.40
2022-11-04T05:14:16.964Z,0.38
2022-11-04T05:16:10.868Z,0.30
2022-11-04T05:18:03.541Z,0.30
2022-11-04T05:19:54.662Z,0.35
2022-11-04T05:21:46.205Z,0.30
2022-11-04T05:23:37.977Z,0.30
2022-11-04T05:25:29.225Z,0.30
2022-11-04T05:27:20.493Z,0.30
2022-11-04T05:29:12.713Z,0.30
2022-11-04T05:31:05.558Z,0.20
2022-11-04T05:33:00.021Z,0.30
2022-11-04T05:34:55.035Z,0.30
2022-11-04T05:36:46.227Z,0.20
2022-11-04T05:38:37.970Z,0.30
2022-11-04T05:40:29.269Z,0.20
2022-11-04T05:42:20.318Z,0.20
2022-11-04T05:44:11.932Z,0.20
2022-11-04T05:46:03.723Z,0.20
2022-11-04T05:48:02.795Z,0.20
2022-11-04T05:49:54.333Z,0.20
2022-11-04T05:51:45.671Z,0.20
2022-11-04T05:53:37.027Z,0.20
2022-11-04T05:55:28.844Z,0.20
2022-11-04T05:57:20.131Z,0.20
2022-11-04T05:59:11.295Z,0.20
2022-11-04T06:01:39.286Z,0.20
2022-11-04T06:03:30.703Z,0.20
2022-11-04T06:05:22.647Z,0.20
2022-11-04T06:07:14.215Z,0.20
2022-11-04T06:09:05.538Z,0.20
2022-11-04T06:10:56.729Z,0.20
2022-11-04T06:12:48.389Z,0.20
2022-11-04T06:14:39.620Z,0.20
2022-11-04T06:16:31.346Z,0.20
2022-11-04T06:18:22.448Z,0.20
2022-11-04T06:20:14.022Z,0.20
2022-11-04T06:22:06.001Z,0.20
2022-11-04T06:23:58.999Z,0.20
2022-11-04T06:25:53.446Z,0.20
2022-11-04T06:27:44.744Z,0.20
2022-11-04T06:29:40.372Z,0.20
2022-11-04T06:31:31.870Z,0.20
2022-11-04T06:33:23.349Z,0.20
2022-11-04T06:35:14.730Z,0.30
2022-11-04T06:37:06.668Z,0.20
2022-11-04T06:39:04.050Z,0.20
2022-11-04T06:40:56.128Z,0.20
2022-11-04T06:42:47.606Z,0.30
2022-11-04T06:44:38.904Z,0.20
2022-11-04T06:46:42.547Z,0.20
2022-11-04T06:48:34.027Z,0.20
2022-11-04T06:50:25.811Z,0.20
2022-11-04T06:52:16.982Z,0.20
2022-11-04T06:54:08.614Z,0.22
2022-11-04T06:56:04.432Z,0.20
2022-11-04T06:57:55.386Z,0.20
2022-11-04T06:59:46.938Z,0.20
2022-11-04T07:01:38.492Z,0.20
2022-11-04T07:03:30.200Z,0.28
2022-11-04T07:05:21.676Z,0.30
2022-11-04T07:07:13.399Z,0.20
2022-11-04T07:09:05.075Z,0.20
2022-11-04T07:10:56.696Z,0.22
2022-11-04T07:12:47.966Z,0.20
2022-11-04T07:14:39.432Z,0.20
2022-11-04T07:16:30.890Z,0.30
2022-11-04T07:18:21.947Z,0.20
2022-11-04T07:20:13.602Z,0.30
2022-11-04T07:22:05.199Z,0.20
2022-11-04T07:23:56.847Z,0.30
2022-11-04T07:25:48.440Z,0.30
2022-11-04T07:27:40.128Z,0.30
2022-11-04T07:29:31.665Z,0.22
2022-11-04T07:31:22.979Z,0.20
2022-11-04T07:33:14.585Z,0.20
2022-11-04T07:35:06.243Z,0.28
2022-11-04T07:36:57.888Z,0.20
2022-11-04T07:38:49.360Z,0.20
2022-11-04T07:40:40.684Z,0.30
2022-11-04T07:42:32.337Z,0.28
2022-11-04T07:44:31.066Z,0.30
2022-11-04T07:46:22.546Z,0.30
2022-11-04T07:48:14.074Z,0.30
2022-11-04T07:50:10.691Z,0.28
2022-11-04T07:52:02.412Z,0.25
2022-11-04T07:53:55.889Z,0.30
2022-11-04T07:55:51.121Z,0.20
2022-11-04T07:57:42.211Z,0.28
2022-11-04T07:59:34.010Z,0.30
2022-11-04T08:01:26.045Z,0.30
2022-11-04T08:03:17.832Z,0.22
2022-11-04T08:05:09.813Z,0.30
2022-11-04T08:07:02.266Z,0.30
2022-11-04T08:08:54.322Z,0.30
2022-11-04T08:10:47.425Z,0.30
2022-11-04T08:12:38.935Z,0.30
2022-11-04T08:14:30.157Z,0.30
2022-11-04T08:16:23.529Z,0.30
2022-11-04T08:18:15.051Z,0.30
2022-11-04T08:20:06.443Z,0.22
2022-11-04T08:21:57.663Z,0.30
2022-11-04T08:23:51.691Z,0.30
2022-11-04T08:25:43.691Z,0.30
2022-11-04T08:27:35.320Z,0.22
2022-11-04T08:29:26.762Z,0.30
2022-11-04T08:31:26.602Z,0.30
2022-11-04T08:33:18.028Z,0.30
2022-11-04T08:35:09.757Z,0.30
2022-11-04T08:37:01.944Z,0.30
2022-11-04T08:38:54.379Z,0.30
2022-11-04T08:40:45.766Z,0.30
2022-11-04T08:42:37.106Z,0.30
2022-11-04T08:44:28.602Z,0.30
2022-11-04T08:46:20.523Z,0.25
2022-11-04T08:48:13.342Z,0.30
2022-11-04T08:50:05.137Z,0.30
2022-11-04T08:51:59.884Z,0.20
2022-11-04T08:53:52.241Z,0.30
2022-11-04T08:55:43.397Z,0.30
2022-11-04T08:57:34.746Z,0.30
2022-11-04T08:59:26.221Z,0.20
2022-11-04T09:01:19.145Z,0.20
2022-11-04T09:03:10.945Z,0.30
2022-11-04T09:05:03.619Z,0.30
2022-11-04T09:06:56.553Z,0.30
2022-11-04T09:08:48.396Z,0.30
2022-11-04T09:10:45.005Z,0.30
2022-11-04T09:12:36.709Z,0.30
2022-11-04T09:14:27.999Z,0.30
2022-11-04T09:16:19.574Z,0.30
2022-11-04T09:18:10.823Z,0.30
2022-11-04T09:20:02.088Z,0.30
2022-11-04T09:21:54.724Z,0.30
2022-11-04T09:23:46.958Z,0.30
2022-11-04T09:25:38.466Z,0.20
2022-11-04T09:27:29.923Z,0.30
2022-11-04T09:29:21.291Z,0.30
2022-11-04T09:31:18.464Z,0.30
2022-11-04T09:33:10.740Z,0.20
2022-11-04T09:35:02.506Z,0.30
2022-11-04T09:36:57.830Z,0.30
2022-11-04T09:38:50.027Z,0.30
2022-11-04T09:40:41.199Z,0.30
2022-11-04T09:43:02.617Z,0.30
2022-11-04T09:45:22.968Z,0.30
2022-11-04T09:47:21.533Z,0.30
2022-11-04T09:49:13.840Z,0.30
2022-11-04T09:51:12.914Z,0.30
2022-11-04T09:53:24.217Z,0.30
2022-11-04T09:55:18.426Z,0.30
2022-11-04T09:57:18.653Z,0.30
2022-11-04T09:59:12.059Z,0.30
2022-11-04T10:01:12.272Z,0.30
2022-11-04T10:03:15.850Z,0.30
2022-11-04T10:05:32.165Z,0.30
2022-11-04T10:07:47.643Z,0.20
2022-11-04T10:10:08.352Z,0.30
2022-11-04T10:12:18.044Z,0.30
2022-11-04T10:14:21.783Z,0.30
2022-11-04T10:16:37.353Z,0.30
2022-11-04T10:18:52.257Z,0.30
2022-11-04T10:20:52.609Z,0.30
2022-11-04T10:23:02.743Z,0.30
2022-11-04T10:25:18.965Z,0.30
2022-11-04T10:27:16.360Z,0.30
2022-11-04T10:29:17.608Z,0.20
2022-11-04T10:31:16.677Z,0.20
2022-11-04T10:33:32.939Z,0.30
2022-11-04T10:35:51.936Z,0.20
2022-11-04T10:37:43.405Z,0.30
2022-11-04T10:39:41.821Z,0.20
2022-11-04T10:41:39.934Z,0.30
2022-11-04T10:43:38.131Z,0.30
2022-11-04T10:45:39.323Z,0.30
2022-11-04T10:47:50.492Z,0.30
2022-11-04T10:50:28.228Z,0.30
2022-11-04T10:52:23.109Z,0.30
2022-11-04T10:54:15.094Z,0.30
2022-11-04T10:56:29.394Z,0.25
2022-11-04T10:58:28.695Z,0.30
2022-11-04T11:00:41.661Z,0.30
2022-11-04T11:02:46.469Z,0.30
2022-11-04T11:04:40.620Z,0.30
2022-11-04T11:06:33.981Z,0.30
2022-11-04T11:08:31.947Z,0.30
2022-11-04T11:10:27.890Z,0.30
2022-11-04T11:12:50.577Z,0.22
2022-11-04T11:14:42.930Z,0.30
2022-11-04T11:16:34.440Z,0.30
2022-11-04T11:18:28.824Z,0.30
2022-11-04T11:20:23.211Z,0.30
2022-11-04T11:22:36.016Z,0.22
2022-11-04T11:24:31.030Z,0.30
2022-11-04T11:26:30.714Z,0.22
2022-11-04T11:28:25.315Z,0.30
2022-11-04T11:30:32.243Z,0.30
2022-11-04T11:32:35.809Z,0.30
2022-11-04T11:34:38.771Z,0.30
2022-11-04T11:36:34.583Z,0.30
2022-11-04T11:38:34.269Z,0.30
2022-11-04T11:40:34.440Z,0.30
2022-11-04T11:42:27.197Z,0.30
2022-11-04T11:44:20.041Z,0.20
2022-11-04T11:46:13.442Z,0.20
2022-11-04T11:48:32.351Z,0.30
2022-11-04T11:50:34.370Z,0.30
2022-11-04T11:52:38.479Z,0.20
2022-11-04T11:54:39.317Z,0.30
2022-11-04T11:56:52.148Z,0.30
2022-11-04T12:01:23.896Z,0.30
2022-11-04T12:11:16.528Z,0.30
2022-11-04T12:13:28.713Z,0.30
2022-11-04T12:15:54.992Z,0.30
2022-11-04T12:18:18.986Z,0.30
2022-11-04T12:20:56.674Z,0.30
2022-11-04T12:23:00.391Z,0.30
2022-11-04T12:25:02.977Z,0.40
2022-11-04T12:27:22.768Z,0.30
2022-11-04T12:29:44.984Z,0.30
2022-11-04T12:31:51.742Z,0.20
2022-11-04T12:34:21.439Z,0.30
2022-11-04T12:36:25.625Z,0.30
2022-11-04T12:38:49.397Z,0.30
2022-11-04T12:41:41.804Z,0.30
2022-11-04T12:43:54.785Z,0.30
2022-11-04T12:45:53.595Z,0.30
2022-11-04T12:47:48.008Z,0.30
2022-11-04T12:49:42.715Z,0.30
2022-11-04T12:51:42.917Z,0.25
2022-11-04T12:53:59.003Z,0.30
2022-11-04T12:56:11.873Z,0.30
2022-11-04T12:58:24.917Z,0.30
2022-11-04T13:00:25.626Z,0.30
2022-11-04T13:02:21.627Z,0.30
2022-11-04T13:04:21.928Z,0.30
2022-11-04T13:06:19.271Z,0.30
2022-11-04T13:08:43.301Z,0.30
2022-11-04T13:10:43.266Z,0.30
2022-11-04T13:12:40.942Z,0.30
2022-11-04T13:14:54.720Z,0.35
2022-11-04T13:16:50.428Z,0.40
2022-11-04T13:18:43.585Z,0.30
2022-11-04T13:20:45.914Z,0.30
2022-11-04T13:22:38.987Z,0.30
2022-11-04T13:24:40.822Z,0.25
2022-11-04T13:26:33.474Z,0.38
2022-11-04T13:28:25.867Z,0.30
2022-11-04T13:30:30.325Z,0.40
2022-11-04T13:32:31.854Z,0.30
2022-11-04T13:34:58.523Z,0.40
2022-11-04T13:37:07.153Z,0.30
2022-11-04T13:39:05.659Z,0.30
2022-11-04T13:41:20.369Z,0.30
2022-11-04T13:43:39.026Z,0.30
2022-11-04T13:45:31.447Z,0.32
2022-11-04T13:47:32.931Z,0.30
2022-11-04T13:49:30.902Z,0.30
2022-11-04T13:51:22.775Z,0.30
2022-11-04T13:53:14.342Z,0.30
2022-11-04T13:55:08.912Z,0.30
2022-11-04T13:57:16.505Z,0.30
2022-11-04T13:59:30.344Z,0.30
2022-11-04T14:01:21.977Z,0.30
2022-11-04T14:03:22.562Z,0.32
2022-11-04T14:05:40.213Z,0.30
2022-11-04T14:08:15.534Z,0.30
2022-11-04T14:10:45.330Z,0.30
2022-11-04T14:12:37.293Z,0.30
2022-11-04T14:14:28.540Z,0.38
2022-11-04T14:16:26.247Z,0.35
2022-11-04T14:18:29.329Z,0.30
2022-11-04T14:20:26.403Z,0.30
2022-11-04T14:22:19.616Z,0.40
2022-11-04T14:24:16.431Z,0.40
2022-11-04T14:26:24.069Z,0.40
2022-11-04T14:28:15.106Z,0.30
2022-11-04T14:30:08.261Z,0.30
2022-11-04T14:32:01.016Z,0.30
2022-11-04T14:33:55.246Z,0.30
2022-11-04T14:35:46.704Z,0.30
2022-11-04T14:37:37.952Z,0.40
2022-11-04T14:39:32.763Z,0.30
2022-11-04T14:41:37.432Z,0.35
2022-11-04T14:43:35.330Z,0.40
2022-11-04T14:45:33.856Z,0.40
2022-11-04T14:47:30.171Z,0.38
2022-11-04T14:49:47.189Z,0.30
2022-11-04T14:51:42.315Z,0.40
2022-11-04T14:53:37.737Z,0.30
2022-11-04T14:55:31.396Z,0.32
2022-11-04T14:57:23.826Z,0.35
2022-11-04T14:59:27.650Z,0.30
2022-11-04T15:03:21.376Z,0.30
2022-11-04T15:05:29.261Z,0.40
2022-11-04T15:07:35.630Z,0.35
2022-11-04T15:09:39.958Z,0.35
2022-11-04T15:13:47.479Z,0.40
2022-11-04T15:15:48.906Z,0.40
2022-11-04T15:17:40.438Z,0.40
2022-11-04T15:19:34.679Z,0.40
2022-11-04T15:21:26.390Z,0.40
2022-11-04T15:23:26.511Z,0.30
2022-11-04T15:25:19.498Z,0.40
2022-11-04T15:27:15.636Z,0.40
2022-11-04T15:29:13.177Z,0.40
2022-11-04T15:31:04.229Z,0.40
2022-11-04T15:33:03.651Z,0.40
2022-11-04T15:34:56.920Z,0.40
2022-11-04T15:36:49.920Z,0.40
2022-11-04T15:38:47.148Z,0.40
2022-11-04T15:40:39.343Z,0.40
2022-11-04T15:42:40.079Z,0.40
2022-11-04T15:44:34.076Z,0.40
2022-11-04T15:46:27.969Z,0.40
2022-11-04T15:48:38.224Z,0.40
2022-11-04T15:50:31.499Z,0.40
2022-11-04T15:52:28.232Z,0.40
2022-11-04T15:54:33.966Z,0.30
2022-11-04T15:56:29.765Z,0.40
2022-11-04T15:58:21.494Z,0.40
2022-11-04T16:00:24.832Z,0.40
2022-11-04T16:02:28.493Z,0.40
2022-11-04T16:04:24.097Z,0.40
2022-11-04T16:06:15.633Z,0.40
2022-11-04T16:08:27.925Z,0.40
2022-11-04T16:10:32.840Z,0.40
2022-11-04T16:12:36.774Z,0.43
2022-11-04T16:16:26.005Z,0.40
2022-11-04T16:18:39.218Z,0.40
2022-11-04T16:20:32.310Z,0.40
2022-11-04T16:22:35.680Z,0.40
2022-11-04T16:24:33.584Z,0.40
2022-11-04T16:26:31.776Z,0.40
2022-11-04T16:28:23.944Z,0.40
2022-11-04T16:30:21.102Z,0.40
2022-11-04T16:32:19.333Z,0.40
2022-11-04T16:34:14.505Z,0.32
2022-11-04T16:36:14.177Z,0.32
2022-11-04T16:38:05.525Z,0.40
2022-11-04T16:39:56.839Z,0.40
2022-11-04T16:41:48.465Z,0.40
2022-11-04T16:43:43.988Z,0.40
2022-11-04T16:45:38.317Z,0.40
2022-11-04T16:47:32.783Z,0.40
2022-11-04T16:49:25.671Z,0.40
2022-11-04T16:51:22.455Z,0.40
2022-11-04T16:53:14.127Z,0.40
2022-11-04T16:55:06.409Z,0.40
2022-11-04T16:56:59.366Z,0.40
2022-11-04T16:58:51.317Z,0.40
2022-11-04T17:00:43.271Z,0.30
2022-11-04T17:02:41.353Z,0.40
2022-11-04T17:04:33.419Z,0.40
2022-11-04T17:06:25.678Z,0.40
2022-11-04T17:08:17.846Z,0.40
2022-11-04T17:10:25.699Z,0.40
2022-11-04T17:12:17.365Z,0.40
2022-11-04T17:14:08.694Z,0.40
2022-11-04T17:16:00.613Z,0.40
2022-11-04T17:17:52.193Z,0.40
2022-11-04T17:19:44.031Z,0.40
2022-11-04T17:21:35.385Z,0.40
2022-11-04T17:23:27.705Z,0.40
2022-11-04T17:25:29.941Z,0.40
2022-11-04T17:27:21.376Z,0.40
2022-11-04T17:29:17.298Z,0.40
2022-11-04T17:31:19.262Z,0.40
2022-11-04T17:33:14.205Z,0.40
2022-11-04T17:35:05.976Z,0.38
2022-11-04T17:36:57.320Z,0.40
2022-11-04T17:38:49.526Z,0.40
2022-11-04T17:40:59.365Z,0.40
2022-11-04T17:43:12.314Z,0.40
2022-11-04T17:45:05.293Z,0.40
2022-11-04T17:46:58.114Z,0.40
2022-11-04T17:48:49.443Z,0.40
2022-11-04T17:50:42.588Z,0.40
2022-11-04T17:52:35.489Z,0.40
2022-11-04T17:54:30.525Z,0.40
2022-11-04T17:56:23.450Z,0.40
2022-11-04T17:58:15.307Z,0.40
2022-11-04T18:00:08.470Z,0.40
2022-11-04T18:01:59.998Z,0.40
2022-11-04T18:03:53.704Z,0.40
2022-11-04T18:05:46.448Z,0.40
2022-11-04T18:07:37.738Z,0.40
2022-11-04T18:09:29.532Z,0.40
2022-11-04T18:11:40.636Z,0.40
2022-11-04T18:13:32.489Z,0.40
2022-11-04T18:15:25.017Z,0.40
2022-11-04T18:17:16.977Z,0.40
2022-11-04T18:19:08.164Z,0.40
2022-11-04T18:21:08.049Z,0.30
2022-11-04T18:23:00.635Z,0.40
2022-11-04T18:24:52.302Z,0.40
2022-11-04T18:26:44.467Z,0.40
2022-11-04T18:28:38.435Z,0.40
2022-11-04T18:30:29.892Z,0.40
2022-11-04T18:32:21.646Z,0.40
2022-11-04T18:34:14.933Z,0.40
2022-11-04T18:37:58.124Z,0.30
2022-11-04T18:39:49.544Z,0.30
2022-11-04T18:41:41.498Z,0.40
2022-11-04T18:43:33.319Z,0.40
2022-11-04T18:45:25.043Z,0.40
2022-11-04T18:47:16.385Z,0.30
2022-11-04T18:49:07.623Z,0.40
2022-11-04T18:51:02.885Z,0.40
2022-11-04T18:52:55.946Z,0.40
2022-11-04T18:54:47.201Z,0.40
2022-11-04T18:56:39.208Z,0.40
2022-11-04T18:58:34.865Z,0.40
2022-11-04T19:00:26.474Z,0.40
2022-11-04T19:02:26.114Z,0.40
2022-11-04T19:04:17.355Z,0.40
2022-11-04T19:06:11.419Z,0.40
2022-11-04T19:08:03.315Z,0.40
2022-11-04T19:09:55.727Z,0.40
2022-11-04T19:11:47.097Z,0.40
2022-11-04T19:13:38.657Z,0.40
2022-11-04T19:15:30.467Z,0.40
2022-11-04T19:17:22.177Z,0.40
2022-11-04T19:19:18.391Z,0.40
2022-11-04T19:21:12.920Z,0.40
2022-11-04T19:23:05.248Z,0.40
2022-11-04T19:24:56.521Z,0.40
2022-11-04T19:26:47.773Z,0.40
2022-11-04T19:28:48.227Z,0.40
2022-11-04T19:30:40.103Z,0.47
2022-11-04T19:32:31.414Z,0.40
2022-11-04T19:34:22.663Z,0.40
2022-11-04T19:36:16.180Z,0.40
2022-11-04T19:38:08.401Z,0.40
2022-11-04T19:40:00.201Z,0.40
2022-11-04T19:42:10.224Z,0.40
2022-11-04T19:44:03.693Z,0.40
2022-11-04T19:47:51.605Z,0.40
2022-11-04T19:49:43.073Z,0.40
2022-11-04T19:51:35.788Z,0.40
2022-11-04T19:53:27.420Z,0.40
2022-11-04T19:55:19.885Z,0.40
2022-11-04T19:57:11.520Z,0.40
2022-11-04T19:59:06.243Z,0.40
2022-11-04T20:01:05.014Z,0.40
2022-11-04T20:02:56.285Z,0.30
2022-11-04T20:04:48.421Z,0.40
2022-11-04T20:06:39.850Z,0.30
2022-11-04T20:08:31.210Z,0.40
2022-11-04T20:10:23.711Z,0.40
2022-11-04T20:12:33.316Z,0.30
2022-11-04T20:14:25.005Z,0.32
2022-11-04T20:16:29.705Z,0.40
2022-11-04T20:18:21.561Z,0.40
2022-11-04T20:20:13.141Z,0.40
2022-11-04T20:22:04.847Z,0.40
2022-11-04T20:24:01.980Z,0.40
2022-11-04T20:25:53.296Z,0.40
2022-11-04T20:27:44.812Z,0.40
2022-11-04T20:29:36.080Z,0.40
2022-11-04T20:31:30.582Z,0.40
2022-11-04T20:33:21.917Z,0.40
2022-11-04T20:35:14.679Z,0.40
2022-11-04T20:37:05.933Z,0.30
2022-11-04T20:39:02.564Z,0.40
2022-11-04T20:40:54.184Z,0.40
2022-11-04T20:42:48.011Z,0.40
2022-11-04T20:44:39.707Z,0.40
2022-11-04T20:46:35.028Z,0.40
2022-11-04T20:48:26.343Z,0.40
2022-11-04T20:50:17.921Z,0.40
2022-11-04T20:52:09.119Z,0.40
2022-11-04T20:54:03.549Z,0.40
2022-11-04T20:55:55.116Z,0.40
2022-11-04T20:57:46.497Z,0.40
2022-11-04T20:59:37.686Z,0.40
2022-11-04T21:01:34.977Z,0.40
2022-11-04T21:03:26.590Z,0.40
2022-11-04T21:05:18.623Z,0.30
2022-11-04T21:07:10.908Z,0.40
2022-11-04T21:09:02.265Z,0.40
2022-11-04T21:10:55.920Z,0.40
2022-11-04T21:12:47.518Z,0.40
2022-11-04T21:14:38.823Z,0.40
2022-11-04T21:16:30.831Z,0.40
2022-11-04T21:18:22.813Z,0.40
2022-11-04T21:20:13.948Z,0.40
2022-11-04T21:22:05.374Z,0.40
2022-11-04T21:23:59.071Z,0.50
2022-11-04T21:25:52.703Z,0.40
2022-11-04T21:27:44.537Z,0.40
2022-11-04T21:29:36.984Z,0.40
2022-11-04T21:31:29.926Z,0.40
2022-11-04T21:33:21.750Z,0.40
2022-11-04T21:35:13.094Z,0.43
2022-11-04T21:37:04.294Z,0.50
2022-11-04T21:38:56.332Z,0.40
2022-11-04T21:40:48.107Z,0.40
2022-11-04T21:42:39.215Z,0.40
2022-11-04T21:44:30.734Z,0.40
2022-11-04T21:46:22.437Z,0.40
2022-11-04T21:48:13.849Z,0.40
2022-11-04T21:50:05.909Z,0.40
2022-11-04T21:51:57.461Z,0.40
2022-11-04T21:53:48.726Z,0.40
2022-11-04T21:55:40.062Z,0.40
2022-11-04T21:57:31.215Z,0.40
2022-11-04T21:59:22.660Z,0.40
2022-11-04T22:01:17.436Z,0.40
2022-11-04T22:03:10.831Z,0.40
2022-11-04T22:05:02.505Z,0.40
2022-11-04T22:06:54.113Z,0.40
2022-11-04T22:08:49.414Z,0.40
2022-11-04T22:10:40.425Z,0.40
2022-11-04T22:12:32.044Z,0.40
2022-11-04T22:14:23.668Z,0.40
2022-11-04T22:16:18.682Z,0.40
2022-11-04T22:18:10.747Z,0.40
2022-11-04T22:20:02.243Z,0.40
2022-11-04T22:21:53.982Z,0.40
2022-11-04T22:23:45.772Z,0.40
2022-11-04T22:25:37.140Z,0.40
2022-11-04T22:27:28.678Z,0.40
2022-11-04T22:29:20.285Z,0.40
2022-11-04T22:31:23.964Z,0.50
2022-11-04T22:33:15.552Z,0.40
2022-11-04T22:35:07.441Z,0.40
2022-11-04T22:36:58.932Z,0.40
2022-11-04T22:38:50.939Z,0.40
2022-11-04T22:40:42.224Z,0.40
2022-11-04T22:42:33.701Z,0.40
2022-11-04T22:44:25.413Z,0.35
2022-11-04T22:46:25.737Z,0.40
2022-11-04T22:48:16.874Z,0.40
2022-11-04T22:50:08.307Z,0.40
2022-11-04T22:51:59.950Z,0.40
2022-11-04T22:54:00.032Z,0.40
2022-11-04T22:55:52.467Z,0.40
2022-11-04T22:57:44.716Z,0.40
2022-11-04T22:59:36.027Z,0.40
2022-11-04T23:01:27.730Z,0.40
2022-11-04T23:03:19.606Z,0.40
2022-11-04T23:05:11.228Z,0.40
2022-11-04T23:07:02.955Z,0.40
2022-11-04T23:08:59.622Z,0.40
2022-11-04T23:11:25.508Z,0.32
2022-11-04T23:13:35.382Z,0.40
2022-11-04T23:15:45.803Z,0.38
2022-11-04T23:17:55.732Z,0.40
2022-11-04T23:19:47.099Z,0.40
2022-11-04T23:21:56.813Z,0.40
2022-11-04T23:24:06.834Z,0.50
2022-11-04T23:25:58.202Z,0.40
2022-11-04T23:28:11.415Z,0.40
2022-11-04T23:30:21.770Z,0.40
2022-11-04T23:32:13.012Z,0.30
2022-11-04T23:34:22.699Z,0.40
2022-11-04T23:36:32.765Z,0.40
2022-11-04T23:38:24.864Z,0.40
2022-11-04T23:40:16.408Z,0.40
2022-11-04T23:42:16.574Z,0.40
2022-11-04T23:44:27.689Z,0.40
2022-11-04T23:46:42.614Z,0.38
2022-11-04T23:48:53.786Z,0.40
2022-11-04T23:51:03.194Z,0.40
2022-11-04T23:53:13.876Z,0.40
2022-11-04T23:55:24.303Z,0.40
2022-11-04T23:57:36.422Z,0.40
2022-11-04T23:59:46.327Z,0.40
